EW1625 Weather Reports


Display with metric or nautical units.
time (UTC)temp
F
wind
direction
speed
MPH
gust
MPH
rain 1hr
in
rain 24hr
in
rain mn
in
humidity
%
barometer
mb
20190220070049 42 13 0.0 4.0 0.00 0.00 0.00 70 1020.8
20190220064519 42 13 1.0 8.0 0.00 0.00 0.00 71 1020.9
20190220063037 41 11 1.0 5.0 0.00 0.00 0.00 72 1021.0
20190220061522 41 5 2.0 6.0 0.00 0.00 0.00 74 1021.1
20190220060037 40 338 1.0 4.0 0.00 0.00 0.00 73 1021.1
20190220054512 41 338 0.0 4.0 0.00 0.00 0.00 73 1021.1
20190220053012 41 338 1.0 4.0 0.00 0.00 0.00 72 1021.4
20190220051527 41 337 2.0 4.0 0.00 0.00 0.00 72 1021.3
20190220050018 41 337 0.0 5.0 0.00 0.00 0.00 72 1021.1
20190220044514 42 337 1.0 5.0 0.00 0.00 0.00 72 1020.9
20190220043011 42 333 1.0 5.0 0.00 0.00 0.00 69 1021.0
20190220041533 42 248 1.0 5.0 0.00 0.00 0.00 72 1020.9
20190220040007 40 253 1.0 3.0 0.00 0.00 0.00 74 1021.0
20190220034512 41 253 0.0 1.0 0.00 0.00 0.00 72 1020.6
20190220033009 42 253 0.0 1.0 0.00 0.00 0.00 69 1020.5
20190220031503 43 253 0.0 0.0 0.00 0.00 0.00 68 1020.6
20190220030003 44 253 0.0 2.0 0.00 0.00 0.00 65 1020.5
20190220024523 45 253 0.0 0.0 0.00 0.00 0.00 61 1020.1
20190220023002 46 253 1.0 4.0 0.00 0.00 0.00 59 1020.0
20190220021501 47 253 1.0 3.0 0.00 0.00 0.00 58 1019.9
20190220020333 49 253 1.0 2.0 0.00 0.00 0.00 55 1020.0
20190220014652 50 253 3.0 7.0 0.00 0.00 0.00 52 1019.7
20190220013130 51 252 4.0 8.0 0.00 0.00 0.00 50 1019.6
20190220011637 53 246 4.0 10.0 0.00 0.00 0.00 46 1019.7
20190220010231 54 244 5.0 12.0 0.00 0.00 0.00 44 1019.5
20190220004623 55 244 7.0 12.0 0.00 0.00 0.00 42 1019.4
20190220003154 57 244 6.0 12.0 0.00 0.00 0.00 40 1019.3
20190220001639 58 44 3.0 5.0 0.00 0.00 0.00 36 1019.2
20190220000120 58 44 1.0 5.0 0.00 0.00 0.00 31 1019.1
20190219234649 58 44 2.0 4.0 0.00 0.00 0.00 31 1019.3
20190219233141 57 44 3.0 7.0 0.00 0.00 0.00 34 1019.4
20190219231625 57 44 2.0 9.0 0.00 0.00 0.00 33 1019.6
20190219230146 57 44 2.0 7.0 0.00 0.00 0.00 31 1019.8
20190219224619 58 46 5.0 10.0 0.00 0.00 0.00 32 1019.7
20190219223056 57 32 3.0 10.0 0.00 0.00 0.00 31 1019.8
20190219221631 57 36 3.0 9.0 0.00 0.00 0.00 30 1019.8
20190219220113 57 35 3.0 9.0 0.00 0.00 0.00 32 1019.9
20190219214627 57 33 3.0 9.0 0.00 0.00 0.00 32 1020.1
20190219213101 57 51 6.0 12.0 0.00 0.00 0.00 33 1020.4
20190219211539 56 48 1.0 6.0 0.00 0.00 0.00 35 1020.7
20190219210049 56 47 3.0 9.0 0.00 0.00 0.00 34 1020.9
20190219204606 55 53 3.0 11.0 0.00 0.00 0.00 36 1021.0
20190219203055 55 49 3.0 9.0 0.00 0.00 0.00 37 1021.3
20190219201605 55 48 6.0 12.0 0.00 0.00 0.00 38 1021.5
20190219200102 55 74 3.0 12.0 0.00 0.00 0.00 39 1021.7
20190219194537 54 100 2.0 10.0 0.00 0.00 0.00 39 1022.0
20190219193033 54 59 6.0 12.0 0.00 0.00 0.00 39 1022.0
20190219191513 53 84 2.0 10.0 0.00 0.00 0.00 40 1022.3
20190219184656 52 119 4.0 12.0 0.00 0.00 0.00 43 1022.6
20190219183201 52 74 5.0 14.0 0.00 0.00 0.00 43 1022.6
20190219181612 51 62 3.0 10.0 0.00 0.00 0.00 46 1022.6
20190219180115 51 57 4.0 13.0 0.00 0.00 0.00 46 1022.6
20190219174619 50 71 3.0 11.0 0.00 0.00 0.00 45 1022.7
20190219173147 50 71 3.0 10.0 0.00 0.00 0.00 46 1022.5
20190219171634 48 51 4.0 12.0 0.00 0.00 0.00 48 1022.5
20190219170120 47 57 1.0 11.0 0.00 0.00 0.00 52 1022.4
20190219164527 46 61 3.0 11.0 0.00 0.00 0.00 54 1022.4
20190219163136 45 73 2.0 8.0 0.00 0.00 0.00 57 1022.2
20190219161556 43 58 2.0 6.0 0.00 0.00 0.00 60 1022.2
20190219160011 41 56 2.0 6.0 0.00 0.00 0.00 65 1022.0
20190219154508 40 69 3.0 9.0 0.00 0.00 0.00 66 1021.8
20190219153010 38 59 3.0 10.0 0.00 0.00 0.00 69 1021.7
20190219151507 37 57 0.0 6.0 0.00 0.00 0.00 71 1021.6
20190219150136 37 57 1.0 5.0 0.00 0.00 0.00 71 1021.5
20190219144812 37 57 1.0 6.0 0.00 0.00 0.00 71 1021.4
20190219143148 37 56 2.0 6.0 0.00 0.00 0.00 72 1021.2
20190219141618 36 67 2.0 4.0 0.00 0.00 0.00 72 1021.1
20190219140204 37 67 1.0 8.0 0.00 0.00 0.00 73 1021.0
20190219134635 37 67 0.0 6.0 0.00 0.00 0.00 72 1020.9
20190219133122 37 68 1.0 6.0 0.00 0.00 0.00 72 1020.8
20190219131856 37 68 1.0 3.0 0.00 0.00 0.00 71 1020.9
20190219130116 37 68 2.0 6.0 0.00 0.00 0.00 72 1020.8
20190219124656 37 68 3.0 6.0 0.00 0.00 0.00 72 1020.9
20190219123120 37 68 1.0 4.0 0.00 0.00 0.00 71 1020.7
20190219121609 38 68 1.0 4.0 0.00 0.00 0.00 71 1020.6
20190219120131 38 68 0.0 5.0 0.00 0.00 0.00 72 1020.7
20190219114639 38 68 0.0 6.0 0.00 0.00 0.00 71 1020.7
20190219113135 38 68 2.0 5.0 0.00 0.00 0.00 71 1020.6
20190219111635 38 68 1.0 5.0 0.00 0.00 0.00 71 1020.7
20190219110113 38 67 1.0 5.0 0.00 0.00 0.00 71 1020.7
20190219104644 38 67 2.0 6.0 0.00 0.00 0.00 71 1020.8
20190219103125 39 67 2.0 6.0 0.00 0.00 0.00 70 1021.1
20190219101626 39 65 1.0 4.0 0.00 0.00 0.00 70 1021.3
20190219100128 39 65 1.0 5.0 0.00 0.00 0.00 69 1021.4
20190219094603 39 65 0.0 5.0 0.00 0.00 0.00 69 1021.5
20190219093144 39 65 0.0 8.0 0.00 0.00 0.00 70 1021.7
20190219091618 38 65 1.0 5.0 0.00 0.00 0.00 73 1021.7
20190219090125 37 65 1.0 3.0 0.00 0.00 0.00 74 1022.0
20190219084625 38 65 1.0 3.0 0.00 0.00 0.00 73 1021.8
20190219083140 38 66 2.0 5.0 0.00 0.00 0.00 74 1021.8
20190219081553 37 69 4.0 8.0 0.00 0.00 0.00 78 1021.8
20190219080046 36 69 0.0 3.0 0.00 0.00 0.00 77 1021.8
20190219074559 37 71 3.0 5.0 0.00 0.00 0.00 74 1021.6
20190219073116 38 106 0.0 4.0 0.00 0.00 0.00 72 1021.4
20190219071538 37 106 0.0 2.0 0.00 0.00 0.00 71 1021.8